Time;durP1;ratioP1;P1;durP2;ratioP2;P2;SDS_P1;SDS_P2;PMS_P1;PMS_P2;Temp;Humidity;BMP_temperature;BMP_pressure;BME280_temperature;BME280_humidity;BME280_pressure;Samples;Min_cycle;Max_cycle;Signal;HPM_P1;HPM_P2
2023/03/27 14:25:35;;;;;;;;;;;;;;;22.00;26.63;100630.81;5097214;27;20421;-68
2023/03/27 14:28:03;;;;;;;5.85;1.30;;;;;;;18.81;26.75;100623.63;5072311;28;19931;-68
2023/03/27 14:30:49;;;;;;;6.43;1.48;;;;;;;18.83;27.43;100629.66;5056622;28;20055;-68
2023/03/27 14:33:19;;;;;;;3.80;1.30;;;;;;;20.28;25.51;100627.28;5058750;28;20064;-68
2023/03/27 14:35:55;;;;;;;3.08;1.10;;;;;;;22.68;22.32;100653.88;5023415;28;20058;-68
2023/03/27 14:38:27;;;;;;;3.28;0.82;;;;;;;23.16;21.04;100644.13;5061582;28;20147;-68
2023/03/27 14:40:57;;;;;;;4.95;1.08;;;;;;;23.46;20.24;100638.97;5058849;28;20058;-68
2023/03/27 14:43:26;;;;;;;4.82;1.48;;;;;;;22.86;20.73;100640.28;5062200;28;20052;-69
2023/03/27 14:46:00;;;;;;;4.90;1.25;;;;;;;22.81;20.81;100636.44;5039324;28;20276;-68
2023/03/27 14:48:36;;;;;;;3.25;1.55;;;;;;;23.40;20.04;100637.00;5064306;28;20146;-68
2023/03/27 14:51:13;;;;;;;4.93;1.38;;;;;;;23.70;20.57;100632.72;5061581;28;20082;-69
2023/03/27 14:53:45;;;;;;;3.45;1.52;;;;;;;23.94;20.51;100631.72;5056511;28;20508;-68
2023/03/27 14:56:21;;;;;;;2.17;1.17;;;;;;;21.98;21.58;100645.41;5046546;28;20056;-68
2023/03/27 14:58:50;;;;;;;3.80;1.30;;;;;;;20.49;22.30;100635.88;5057846;28;20223;-68
2023/03/27 15:01:17;;;;;;;3.22;1.20;;;;;;;17.78;27.09;100642.78;5043517;28;20062;-68
2023/03/27 15:03:45;;;;;;;3.88;1.00;;;;;;;17.41;26.90;100639.81;5038538;28;20322;-68
2023/03/27 15:06:16;;;;;;;6.85;1.23;;;;;;;18.85;25.02;100648.19;5058679;28;20052;-67
2023/03/27 15:08:48;;;;;;;2.63;0.80;;;;;;;19.64;24.30;100647.81;5040621;28;20049;-68
2023/03/27 15:11:19;;;;;;;5.88;1.27;;;;;;;16.70;27.63;100645.00;5062513;28;20067;-68
2023/03/27 15:13:46;;;;;;;3.10;0.93;;;;;;;16.08;28.46;100643.94;5043566;28;20048;-68
2023/03/27 15:16:24;;;;;;;2.17;1.08;;;;;;;14.08;31.22;100644.34;5060322;28;20489;-69
2023/03/27 15:19:08;;;;;;;2.15;0.90;;;;;;;13.66;32.62;100640.38;5042873;28;20053;-68
2023/03/27 15:21:51;;;;;;;2.78;1.30;;;;;;;16.85;28.22;100630.47;5042237;28;21130;-68
2023/03/27 15:24:48;;;;;;;3.17;1.00;;;;;;;14.72;30.61;100637.91;5041745;28;20063;-68
2023/03/27 15:27:39;;;;;;;2.85;1.10;;;;;;;12.32;34.53;100635.44;5058802;28;20135;-68
2023/03/27 15:30:30;;;;;;;4.47;1.10;;;;;;;14.22;32.62;100637.19;5057549;28;20062;-69
2023/03/27 15:33:00;;;;;;;2.25;1.00;;;;;;;13.29;33.42;100632.41;5041101;28;20041;-69
2023/03/27 15:35:40;;;;;;;3.08;1.40;;;;;;;11.22;37.13;100633.72;5044138;28;20045;-68
2023/03/27 15:38:12;;;;;;;4.30;1.13;;;;;;;9.68;40.58;100646.13;5023767;28;20483;-69
2023/03/27 15:40:41;;;;;;;6.45;1.60;;;;;;;9.07;42.38;100631.88;5029696;28;20059;-67
2023/03/27 15:43:11;;;;;;;2.20;0.93;;;;;;;9.30;42.01;100630.66;5028863;28;20143;-67
2023/03/27 15:46:13;;;;;;;3.05;1.40;;;;;;;9.11;42.44;100634.28;5041583;28;20164;-67
2023/03/27 15:48:48;;;;;;;5.32;1.20;;;;;;;8.45;43.68;100639.41;5045368;28;20049;-67
2023/03/27 15:51:18;;;;;;;3.67;1.33;;;;;;;8.02;44.12;100638.03;5027188;28;20645;-68
2023/03/27 15:53:54;;;;;;;3.30;1.00;;;;;;;7.72;45.00;100640.31;5031115;28;20076;-68
2023/03/27 15:56:37;;;;;;;3.47;1.30;;;;;;;7.67;45.16;100647.56;5038883;28;20556;-67
2023/03/27 15:59:06;;;;;;;5.03;1.65;;;;;;;7.51;45.90;100650.00;5018479;28;20571;-67
2023/03/27 16:01:34;;;;;;;5.28;1.77;;;;;;;7.59;45.87;100646.13;5033078;28;20092;-69
2023/03/27 16:04:15;;;;;;;3.85;1.70;;;;;;;7.45;46.16;100648.53;5022456;28;20079;-69
2023/03/27 16:06:50;;;;;;;4.10;1.40;;;;;;;7.26;46.87;100645.06;5045358;28;20144;-69
2023/03/27 16:09:20;;;;;;;4.50;1.33;;;;;;;7.16;47.23;100647.25;5035393;28;20494;-69
2023/03/27 16:11:48;;;;;;;2.35;1.23;;;;;;;7.12;46.40;100643.06;5048457;28;20135;-69
2023/03/27 16:14:29;;;;;;;5.32;1.38;;;;;;;7.07;45.80;100647.66;5051534;28;20037;-69
2023/03/27 16:17:13;;;;;;;4.60;1.33;;;;;;;6.94;46.52;100657.78;5022360;28;20059;-69
2023/03/27 16:19:50;;;;;;;5.88;1.30;;;;;;;6.66;46.95;100665.94;5038690;28;20072;-69
2023/03/27 16:22:31;;;;;;;5.60;1.45;;;;;;;6.44;50.41;100710.47;5033990;28;20685;-69
2023/03/27 16:25:00;;;;;;;6.47;1.25;;;;;;;5.77;56.33;100684.34;5028312;28;20102;-69
2023/03/27 16:27:35;;;;;;;8.00;1.05;;;;;;;5.44;60.18;100686.44;5040827;28;20155;-68
2023/03/27 16:30:17;;;;;;;5.05;1.05;;;;;;;5.03;64.13;100693.97;5026290;28;20052;-67
2023/03/27 16:32:45;;;;;;;5.05;1.05;;;;;;;4.99;63.38;100695.84;5045454;28;20523;-68
2023/03/27 16:35:12;;;;;;;4.80;1.23;;;;;;;4.87;62.35;100690.22;5049704;28;20048;-70
2023/03/27 16:37:40;;;;;;;4.30;1.10;;;;;;;4.97;60.54;100692.44;5041360;28;20060;-68
2023/03/27 16:40:07;;;;;;;1.42;0.88;;;;;;;5.01;59.61;100691.44;5043776;28;20175;-68
2023/03/27 16:42:35;;;;;;;4.78;1.15;;;;;;;4.86;59.18;100689.34;5040336;28;20123;-69
2023/03/27 16:45:04;;;;;;;2.45;1.10;;;;;;;4.98;58.94;100690.69;5039241;28;20140;-68
2023/03/27 16:47:31;;;;;;;4.55;1.13;;;;;;;4.92;58.58;100686.53;5021598;28;20041;-67
2023/03/27 16:49:58;;;;;;;4.97;1.45;;;;;;;4.86;58.96;100691.94;5040362;28;20075;-69
2023/03/27 16:52:37;;;;;;;2.45;1.05;;;;;;;4.88;58.27;100697.97;5016954;28;20051;-68
2023/03/27 16:55:05;;;;;;;3.42;1.20;;;;;;;4.77;58.72;100700.09;5041587;28;20041;-67
2023/03/27 16:57:35;;;;;;;2.20;1.00;;;;;;;4.79;58.58;100712.19;5046241;28;20045;-70
2023/03/27 17:00:04;;;;;;;1.60;1.10;;;;;;;4.71;58.33;100708.97;5040299;28;20045;-68
2023/03/27 17:02:32;;;;;;;5.70;1.05;;;;;;;4.69;57.92;100708.19;5043067;28;20135;-68
2023/03/27 17:05:02;;;;;;;9.65;1.77;;;;;;;4.72;57.86;100713.28;5044679;28;20132;-68
2023/03/27 17:07:31;;;;;;;2.63;1.15;;;;;;;4.65;57.62;100716.16;5025409;28;20140;-68
2023/03/27 17:09:58;;;;;;;6.07;1.30;;;;;;;4.57;57.41;100719.88;5037851;28;20055;-69
2023/03/27 17:12:27;;;;;;;5.65;1.67;;;;;;;4.41;57.23;100731.66;5051482;28;20140;-69
2023/03/27 17:14:57;;;;;;;3.47;1.00;;;;;;;4.48;57.48;100724.53;5050754;28;20384;-70
2023/03/27 17:17:26;;;;;;;3.67;1.35;;;;;;;4.54;56.73;100740.81;5040384;28;20048;-69
2023/03/27 17:19:54;;;;;;;4.57;1.27;;;;;;;4.49;56.91;100734.91;5043235;28;20143;-67
2023/03/27 17:22:21;;;;;;;3.25;1.00;;;;;;;4.31;57.64;100748.50;5034711;28;20500;-69
2023/03/27 17:24:51;;;;;;;3.95;1.27;;;;;;;4.41;56.72;100755.13;5036089;28;20450;-69
2023/03/27 17:27:27;;;;;;;3.63;1.45;;;;;;;4.34;56.93;100758.00;5050270;28;20053;-68
2023/03/27 17:29:54;;;;;;;2.50;1.00;;;;;;;4.31;56.86;100759.78;5047117;28;20061;-69
2023/03/27 17:32:24;;;;;;;4.80;1.02;;;;;;;4.22;57.50;100767.88;5038462;28;20053;-69
2023/03/27 17:34:51;;;;;;;3.03;1.15;;;;;;;4.19;57.90;100775.81;5037919;28;20065;-68
2023/03/27 17:37:19;;;;;;;2.72;1.00;;;;;;;4.29;58.25;100776.38;5043611;28;20139;-68
2023/03/27 17:39:47;;;;;;;4.70;1.25;;;;;;;4.22;58.68;100778.31;5023755;28;20553;-69
2023/03/27 17:42:14;;;;;;;4.40;1.23;;;;;;;4.19;58.93;100781.03;5018307;28;20075;-68
2023/03/27 17:44:43;;;;;;;3.47;1.58;;;;;;;3.95;59.54;100777.38;5040172;28;20275;-69
2023/03/27 17:47:11;;;;;;;7.97;1.60;;;;;;;4.02;59.76;100784.13;5049721;28;20498;-69
2023/03/27 17:49:39;;;;;;;2.45;1.48;;;;;;;3.99;59.98;100781.59;5042976;28;20060;-70
2023/03/27 17:52:09;;;;;;;2.05;1.17;;;;;;;3.89;60.76;100779.31;5028113;28;20522;-69
2023/03/27 17:54:37;;;;;;;2.58;1.02;;;;;;;3.93;60.42;100779.19;5035963;28;21278;-70
2023/03/27 17:57:05;;;;;;;4.63;1.10;;;;;;;3.88;61.11;100780.22;5043720;28;20167;-69
2023/03/27 17:59:32;;;;;;;2.70;1.10;;;;;;;3.83;62.44;100785.56;5045973;28;20143;-69
2023/03/27 18:02:00;;;;;;;5.28;1.67;;;;;;;3.87;62.39;100794.97;5026589;28;20073;-69
2023/03/27 18:04:28;;;;;;;3.55;1.20;;;;;;;3.71;63.24;100785.91;5041959;28;20057;-70
2023/03/27 18:06:55;;;;;;;2.42;1.00;;;;;;;3.69;63.29;100787.69;5036838;28;20107;-71
2023/03/27 18:09:23;;;;;;;7.53;1.27;;;;;;;3.60;63.65;100790.53;5022530;28;20053;-69
2023/03/27 18:11:51;;;;;;;3.33;0.95;;;;;;;3.62;64.41;100780.94;5040672;28;20404;-69
2023/03/27 18:14:18;;;;;;;3.10;1.00;;;;;;;3.59;64.94;100778.44;5007525;28;20079;-69
2023/03/27 18:16:45;;;;;;;2.88;1.20;;;;;;;3.65;64.98;100789.53;5039804;28;20142;-70
2023/03/27 18:19:14;;;;;;;2.30;1.30;;;;;;;3.57;65.40;100781.09;5033721;28;20437;-72
2023/03/27 18:21:48;;;;;;;6.68;1.55;;;;;;;3.57;65.65;100775.88;5005923;28;20845;-69
2023/03/27 18:24:18;;;;;;;7.55;1.40;;;;;;;3.59;65.68;100781.03;5021100;28;20056;-72
2023/03/27 18:26:48;;;;;;;3.30;1.30;;;;;;;3.57;66.01;100778.47;5032364;28;20071;-72
2023/03/27 18:29:24;;;;;;;4.85;1.88;;;;;;;3.59;66.13;100775.81;5010680;28;20076;-70
2023/03/27 18:31:52;;;;;;;8.05;1.60;;;;;;;3.53;66.75;100769.91;5036335;28;20127;-70
2023/03/27 18:34:22;;;;;;;4.07;1.85;;;;;;;3.48;66.74;100782.19;5029217;28;20045;-70
2023/03/27 18:36:50;;;;;;;3.67;1.40;;;;;;;3.58;66.75;100797.56;5039425;28;20536;-68
2023/03/27 18:39:18;;;;;;;7.28;1.45;;;;;;;3.67;66.23;100785.13;5037906;28;20056;-69
2023/03/27 18:41:45;;;;;;;4.95;1.50;;;;;;;3.57;66.64;100803.66;5035889;28;20166;-70
2023/03/27 18:44:13;;;;;;;2.58;1.30;;;;;;;3.61;66.11;100805.28;5045033;28;20128;-70
2023/03/27 18:46:40;;;;;;;4.60;1.40;;;;;;;3.44;67.46;100805.72;5047511;28;20063;-69
2023/03/27 18:49:07;;;;;;;1.75;1.10;;;;;;;3.37;67.94;100805.03;5035740;28;20128;-70
2023/03/27 18:51:50;;;;;;;5.28;1.33;;;;;;;3.27;69.10;100809.63;5028467;28;20046;-69
2023/03/27 18:54:17;;;;;;;5.13;1.70;;;;;;;3.20;69.73;100815.88;5044225;28;20065;-70
2023/03/27 18:56:44;;;;;;;2.53;1.35;;;;;;;3.08;71.41;100807.53;5037284;28;20056;-69
2023/03/27 18:59:13;;;;;;;6.07;1.42;;;;;;;2.90;73.03;100796.69;5030673;28;20138;-70
2023/03/27 19:01:40;;;;;;;2.55;1.20;;;;;;;2.84;73.71;100789.06;5043469;28;20085;-69
2023/03/27 19:04:08;;;;;;;4.03;1.30;;;;;;;2.87;74.18;100795.91;5030073;28;20048;-70
2023/03/27 19:06:35;;;;;;;4.85;1.02;;;;;;;2.84;74.21;100788.16;5045622;28;20055;-69
2023/03/27 19:09:04;;;;;;;2.58;1.27;;;;;;;2.81;74.51;100793.47;5023545;28;20416;-70
2023/03/27 19:11:31;;;;;;;4.57;1.50;;;;;;;2.74;74.78;100791.00;5054635;28;20131;-69
2023/03/27 19:13:59;;;;;;;4.78;1.40;;;;;;;2.67;75.57;100781.66;5053157;28;20840;-70
2023/03/27 19:16:26;;;;;;;5.43;1.27;;;;;;;2.69;76.01;100786.81;5054191;28;20126;-69
2023/03/27 19:18:53;;;;;;;3.17;1.20;;;;;;;2.66;76.08;100776.50;5041063;28;20135;-69
2023/03/27 19:21:20;;;;;;;5.05;1.17;;;;;;;2.69;75.83;100768.63;5051574;28;20049;-69
2023/03/27 19:23:48;;;;;;;2.17;0.98;;;;;;;2.61;76.57;100775.72;5048572;28;20044;-69
2023/03/27 19:26:16;;;;;;;3.20;1.15;;;;;;;2.65;76.01;100787.75;5050826;28;20109;-72
2023/03/27 19:28:46;;;;;;;3.80;0.95;;;;;;;2.56;76.43;100790.59;5057240;28;20057;-70
2023/03/27 19:32:03;;;;;;;2.70;1.17;;;;;;;2.50;76.86;100779.44;5053217;28;20075;-70
2023/03/27 19:35:19;;;;;;;3.05;0.85;;;;;;;2.45;77.22;100780.44;5048416;28;20563;-69
2023/03/27 19:37:46;;;;;;;3.47;1.02;;;;;;;2.43;77.71;100790.00;5051091;28;20489;-70
2023/03/27 19:40:14;;;;;;;2.58;0.80;;;;;;;2.47;78.43;100782.09;5051439;28;20045;-69
2023/03/27 19:42:41;;;;;;;2.63;1.10;;;;;;;2.52;78.43;100784.59;5057701;28;20047;-70
2023/03/27 19:45:09;;;;;;;3.70;1.30;;;;;;;2.45;80.30;100780.44;5031034;28;20433;-69
2023/03/27 19:47:36;;;;;;;6.72;2.00;;;;;;;2.41;80.83;100779.66;5050616;28;20409;-69
2023/03/27 19:50:06;;;;;;;3.50;0.95;;;;;;;2.35;81.33;100779.81;5052066;28;20040;-69
2023/03/27 19:52:33;;;;;;;7.13;1.13;;;;;;;2.30;81.72;100776.47;5052112;28;20084;-69
2023/03/27 19:55:00;;;;;;;5.57;1.10;;;;;;;2.23;83.00;100773.13;5052223;28;20045;-70
2023/03/27 19:57:28;;;;;;;4.40;1.30;;;;;;;2.21;83.34;100771.47;5053488;28;20704;-69
2023/03/27 19:59:55;;;;;;;4.03;1.02;;;;;;;2.34;83.43;100780.69;5030727;28;20076;-70
2023/03/27 20:02:22;;;;;;;6.45;1.58;;;;;;;2.32;83.61;100776.41;5051555;28;20083;-69
2023/03/27 20:04:53;;;;;;;2.70;0.80;;;;;;;2.26;84.19;100769.63;5048046;28;20073;-69
2023/03/27 20:07:20;;;;;;;3.33;0.93;;;;;;;2.27;83.91;100771.31;5046149;28;20432;-68
2023/03/27 20:09:47;;;;;;;3.88;0.95;;;;;;;2.26;84.91;100767.88;5051616;28;20063;-70
2023/03/27 20:12:17;;;;;;;5.10;1.30;;;;;;;2.36;85.00;100772.88;5053109;28;20143;-68
2023/03/27 20:14:44;;;;;;;4.18;1.10;;;;;;;2.38;84.70;100776.28;5051645;28;20346;-70
2023/03/27 20:17:28;;;;;;;2.00;1.00;;;;;;;2.31;86.12;100764.31;5035080;28;20049;-69
2023/03/27 20:19:55;;;;;;;3.83;1.15;;;;;;;2.37;86.22;100770.22;5050375;28;20048;-70
2023/03/27 20:22:23;;;;;;;4.13;1.23;;;;;;;2.45;85.87;100775.25;5043335;28;20049;-70
2023/03/27 20:24:50;;;;;;;6.97;1.50;;;;;;;2.43;85.54;100772.69;5046952;28;20452;-70
2023/03/27 20:27:20;;;;;;;3.72;1.38;;;;;;;2.34;86.57;100769.44;5045282;28;20156;-68
2023/03/27 20:29:48;;;;;;;4.15;0.93;;;;;;;2.26;87.05;100762.69;5051378;28;20159;-69
2023/03/27 20:32:15;;;;;;;4.50;1.05;;;;;;;2.22;87.33;100763.63;5047419;28;20051;-71
2023/03/27 20:34:45;;;;;;;5.82;1.20;;;;;;;2.23;88.04;100754.94;5046762;28;20083;-69
2023/03/27 20:37:12;;;;;;;4.40;1.30;;;;;;;2.24;88.11;100773.97;5045524;28;20044;-69
2023/03/27 20:39:43;;;;;;;4.80;1.40;;;;;;;2.23;88.02;100759.28;5045392;28;20456;-69
2023/03/27 20:42:14;;;;;;;5.38;1.42;;;;;;;2.24;87.59;100766.19;5045954;28;20051;-69
2023/03/27 20:44:43;;;;;;;6.57;1.65;;;;;;;2.18;87.22;100755.94;5030229;28;20394;-69
2023/03/27 20:47:12;;;;;;;4.43;1.25;;;;;;;2.20;87.51;100761.94;5031353;28;20053;-71
2023/03/27 20:49:43;;;;;;;3.35;1.23;;;;;;;2.23;86.67;100759.28;5059495;28;20664;-69
2023/03/27 20:52:13;;;;;;;6.75;1.40;;;;;;;2.16;87.23;100763.78;5042100;28;20132;-68
2023/03/27 20:54:41;;;;;;;7.13;1.50;;;;;;;2.02;88.11;100758.00;5031345;28;20213;-70
2023/03/27 20:57:08;;;;;;;5.50;1.20;;;;;;;2.01;87.47;100749.38;5028336;28;20376;-70
2023/03/27 20:59:35;;;;;;;6.40;1.45;;;;;;;2.04;87.52;100756.25;5027358;28;20080;-69
2023/03/27 21:02:03;;;;;;;3.15;1.52;;;;;;;2.05;87.54;100757.97;5051365;28;20110;-70
2023/03/27 21:04:31;;;;;;;5.03;1.42;;;;;;;2.10;87.47;100737.94;5061137;22;20049;-71
2023/03/27 21:06:58;;;;;;;6.13;1.48;;;;;;;2.13;86.67;100745.66;5061127;28;20040;-68
2023/03/27 21:09:26;;;;;;;4.80;1.60;;;;;;;2.17;86.44;100749.06;5047806;28;20062;-69
2023/03/27 21:11:54;;;;;;;8.60;1.55;;;;;;;2.11;86.49;100752.63;5063454;28;20490;-69
2023/03/27 21:14:21;;;;;;;8.57;1.55;;;;;;;2.08;86.23;100741.47;5065447;28;20044;-70
2023/03/27 21:16:49;;;;;;;3.83;1.40;;;;;;;2.06;85.81;100741.47;5051724;28;20035;-69
2023/03/27 21:19:16;;;;;;;5.15;1.13;;;;;;;2.05;86.12;100718.16;5064419;28;20056;-70
2023/03/27 21:21:44;;;;;;;5.20;1.38;;;;;;;1.95;86.32;100741.72;5062882;28;20080;-70
2023/03/27 21:24:12;;;;;;;6.22;1.95;;;;;;;1.81;87.02;100725.59;5064086;28;20063;-69
2023/03/27 21:26:40;;;;;;;6.68;1.35;;;;;;;1.84;86.04;100732.44;5047027;28;20239;-69
2023/03/27 21:29:10;;;;;;;5.15;1.40;;;;;;;1.90;86.47;100740.13;5048873;28;20123;-69
2023/03/27 21:31:38;;;;;;;7.47;1.50;;;;;;;1.90;86.82;100740.97;5048354;28;20052;-70
2023/03/27 21:34:05;;;;;;;9.88;1.55;;;;;;;1.80;87.69;100733.41;5048123;28;20542;-69
2023/03/27 21:36:32;;;;;;;5.40;1.40;;;;;;;1.87;87.58;100745.38;5062457;28;20060;-69
2023/03/27 21:39:00;;;;;;;5.97;1.83;;;;;;;1.92;88.01;100733.16;5066159;28;20044;-69
2023/03/27 21:41:27;;;;;;;4.63;1.15;;;;;;;1.87;88.60;100741.03;5066498;28;20052;-69
2023/03/27 21:43:55;;;;;;;6.03;1.17;;;;;;;1.81;89.49;100745.50;5031961;28;20143;-68
2023/03/27 21:46:22;;;;;;;7.13;1.52;;;;;;;1.71;90.47;100750.91;5041898;28;20136;-69
2023/03/27 21:48:50;;;;;;;6.22;1.38;;;;;;;1.64;91.32;100735.47;5068049;28;20066;-70
2023/03/27 21:51:17;;;;;;;5.00;1.38;;;;;;;1.59;91.75;100743.34;5043513;28;20076;-70
2023/03/27 21:53:45;;;;;;;4.53;1.15;;;;;;;1.53;91.97;100735.66;5046416;28;20064;-69
2023/03/27 21:56:12;;;;;;;7.10;1.52;;;;;;;1.57;91.93;100741.66;5064708;28;20048;-68
2023/03/27 21:58:39;;;;;;;5.13;1.55;;;;;;;1.54;92.43;100737.41;5063906;28;20136;-69
2023/03/27 22:01:07;;;;;;;6.57;1.38;;;;;;;1.49;92.32;100740.09;5064887;28;20044;-70
2023/03/27 22:03:34;;;;;;;7.10;1.33;;;;;;;1.57;92.32;100752.03;5066335;28;20052;-69
2023/03/27 22:06:03;;;;;;;10.85;2.25;;;;;;;1.54;92.86;100765.09;5045985;28;20127;-69
2023/03/27 22:08:40;;;;;;;5.05;1.27;;;;;;;1.52;92.55;100757.31;5038570;28;20124;-70
2023/03/27 22:11:08;;;;;;;5.90;1.42;;;;;;;1.58;92.66;100762.41;5043986;28;20052;-70
2023/03/27 22:13:35;;;;;;;9.57;1.92;;;;;;;1.59;92.83;100753.72;5047004;28;20137;-70
2023/03/27 22:16:10;;;;;;;3.80;1.00;;;;;;;1.59;93.13;100748.53;5065431;28;20158;-69
2023/03/27 22:18:38;;;;;;;2.63;1.40;;;;;;;1.60;93.35;100755.44;5061026;28;20041;-69
2023/03/27 22:21:31;;;;;;;5.75;1.35;;;;;;;1.67;93.51;100758.78;5065594;28;20127;-70
2023/03/27 22:23:58;;;;;;;7.88;1.35;;;;;;;1.66;93.37;100760.50;5031018;28;20175;-69
2023/03/27 22:26:28;;;;;;;8.68;1.65;;;;;;;1.71;93.26;100789.81;5061094;28;20390;-69
2023/03/27 22:28:56;;;;;;;10.05;1.85;;;;;;;1.61;93.84;100774.44;5061045;28;20545;-69
2023/03/27 22:31:24;;;;;;;8.82;1.58;;;;;;;1.64;94.05;100785.63;5046195;28;20139;-69
2023/03/27 22:33:51;;;;;;;3.85;1.25;;;;;;;1.68;94.23;100787.28;5044272;28;20084;-70
2023/03/27 22:36:19;;;;;;;6.28;1.83;;;;;;;1.67;94.27;100795.09;5047560;28;20062;-68
2023/03/27 22:38:47;;;;;;;5.63;1.70;;;;;;;1.69;92.67;100777.75;5062300;28;20147;-70
2023/03/27 22:41:14;;;;;;;4.90;1.48;;;;;;;1.62;92.63;100776.16;5041548;28;20052;-69
2023/03/27 22:43:42;;;;;;;4.32;1.05;;;;;;;1.68;93.31;100787.28;5048396;28;20596;-69
2023/03/27 22:46:14;;;;;;;3.50;1.33;;;;;;;1.70;92.62;100785.50;5045247;28;20538;-69
2023/03/27 22:48:42;;;;;;;5.78;1.70;;;;;;;1.68;93.20;100786.44;5070638;28;20040;-69
2023/03/27 22:51:10;;;;;;;3.13;1.40;;;;;;;1.66;93.51;100798.56;5049500;28;20130;-68
2023/03/27 22:53:38;;;;;;;8.02;2.00;;;;;;;1.64;93.47;100793.41;5065235;28;20397;-70
2023/03/27 22:56:06;;;;;;;6.00;1.50;;;;;;;1.70;93.56;100790.69;5046027;28;20147;-70
2023/03/27 22:58:33;;;;;;;2.83;1.23;;;;;;;1.66;93.48;100780.41;5035790;28;20147;-69
2023/03/27 23:01:03;;;;;;;5.13;1.25;;;;;;;1.72;93.47;100788.94;5050213;28;20045;-69
2023/03/27 23:03:30;;;;;;;2.28;1.02;;;;;;;1.68;92.43;100787.28;5048928;28;20044;-68
2023/03/27 23:05:58;;;;;;;5.70;1.45;;;;;;;1.71;92.12;100784.63;5046758;28;20053;-69
2023/03/27 23:08:26;;;;;;;6.35;1.60;;;;;;;1.69;91.36;100788.13;5056152;28;20496;-69
2023/03/27 23:10:58;;;;;;;10.73;1.50;;;;;;;1.78;91.01;100783.59;5054344;28;20056;-69
2023/03/27 23:13:26;;;;;;;7.70;1.30;;;;;;;1.88;90.47;100784.28;5065513;28;20080;-70
2023/03/27 23:15:54;;;;;;;12.85;1.80;;;;;;;1.87;90.31;100792.09;5034991;28;20052;-70
2023/03/27 23:18:24;;;;;;;8.18;1.17;;;;;;;1.81;90.04;100789.63;5050664;28;20071;-69
2023/03/27 23:20:53;;;;;;;3.90;1.00;;;;;;;1.74;89.91;100791.50;5051443;28;20579;-69
2023/03/27 23:23:20;;;;;;;7.10;1.02;;;;;;;1.78;90.22;100803.53;5069442;28;20062;-68
2023/03/27 23:25:48;;;;;;;4.57;1.00;;;;;;;1.76;89.32;100798.38;5070723;28;20140;-69
2023/03/27 23:28:15;;;;;;;7.75;1.80;;;;;;;1.77;88.95;100802.66;5051687;28;20197;-69
2023/03/27 23:30:51;;;;;;;8.63;1.73;;;;;;;1.76;88.36;100800.97;5067114;28;20041;-69
2023/03/27 23:33:18;;;;;;;4.85;1.58;;;;;;;1.76;88.39;100806.16;5075575;28;20146;-70
2023/03/27 23:35:45;;;;;;;8.38;1.27;;;;;;;1.69;88.26;100796.78;5067467;28;20067;-70
2023/03/27 23:38:13;;;;;;;5.28;1.30;;;;;;;1.75;87.71;100809.63;5054665;28;20147;-68
2023/03/27 23:40:40;;;;;;;5.85;1.27;;;;;;;1.68;87.71;100815.81;5057644;28;20496;-70
2023/03/27 23:43:07;;;;;;;6.70;1.10;;;;;;;1.79;87.27;100807.81;5051632;28;20059;-68
2023/03/27 23:45:34;;;;;;;6.90;1.23;;;;;;;1.75;86.88;100827.78;5062093;28;20060;-71
2023/03/27 23:48:02;;;;;;;6.28;1.10;;;;;;;1.76;87.17;100842.50;5051831;28;20093;-70
2023/03/27 23:50:29;;;;;;;4.00;0.90;;;;;;;1.75;89.89;100852.88;5050787;28;20065;-70
2023/03/27 23:52:56;;;;;;;2.55;0.85;;;;;;;1.48;94.09;100875.00;5047415;28;20135;-69
2023/03/27 23:55:24;;;;;;;6.82;1.75;;;;;;;1.20;94.91;100870.28;5031394;28;20052;-70
2023/03/27 23:57:51;;;;;;;5.07;0.60;;;;;;;0.97;96.32;100881.03;5065161;28;20072;-70
